createdAt,value
2017-11-03T00:01:50.729Z,9.10
2017-11-03T00:04:22.210Z,9.10
2017-11-03T00:06:52.545Z,9.10
2017-11-03T00:09:22.618Z,9.00
2017-11-03T00:11:52.234Z,9.00
2017-11-03T00:14:22.666Z,8.90
2017-11-03T00:16:55.601Z,8.90
2017-11-03T00:19:25.117Z,8.90
2017-11-03T00:21:53.801Z,8.90
2017-11-03T00:24:23.549Z,8.90
2017-11-03T00:26:52.943Z,8.90
2017-11-03T00:29:23.014Z,8.90
2017-11-03T00:31:52.132Z,9.00
2017-11-03T00:34:22.665Z,9.00
2017-11-03T00:36:51.592Z,9.00
2017-11-03T00:39:21.741Z,9.00
2017-11-03T00:41:50.055Z,9.10
2017-11-03T00:44:18.958Z,9.00
2017-11-03T00:46:47.994Z,9.00
2017-11-03T00:49:16.947Z,8.90
2017-11-03T00:51:46.613Z,8.90
2017-11-03T00:54:17.703Z,9.00
2017-11-03T00:56:47.205Z,9.00
2017-11-03T00:59:17.644Z,9.00
2017-11-03T01:01:47.232Z,9.00
2017-11-03T01:04:16.974Z,9.00
2017-11-03T01:06:50.180Z,9.00
2017-11-03T01:09:19.084Z,9.00
2017-11-03T01:11:48.756Z,9.00
2017-11-03T01:14:18.549Z,9.00
2017-11-03T01:16:47.248Z,9.00
2017-11-03T01:19:16.945Z,9.10
2017-11-03T01:21:45.820Z,9.10
2017-11-03T01:24:19.436Z,9.10
2017-11-03T01:26:48.412Z,9.10
2017-11-03T01:29:16.709Z,9.10
2017-11-03T01:31:46.222Z,9.10
2017-11-03T01:34:14.792Z,9.10
2017-11-03T01:36:44.100Z,9.00
2017-11-03T01:39:17.161Z,9.00
2017-11-03T01:41:45.497Z,9.00
2017-11-03T01:44:15.068Z,9.10
2017-11-03T01:46:44.112Z,9.00
2017-11-03T01:49:15.052Z,9.10
2017-11-03T01:51:44.140Z,9.10
2017-11-03T01:54:13.316Z,9.20
2017-11-03T01:56:42.705Z,9.20
2017-11-03T01:59:13.783Z,9.30
2017-11-03T02:01:42.848Z,9.30
2017-11-03T02:04:12.369Z,9.40
2017-11-03T02:06:42.651Z,9.40
2017-11-03T02:09:11.743Z,9.40
2017-11-03T02:11:41.118Z,9.40
2017-11-03T02:14:10.715Z,9.40
2017-11-03T02:16:39.356Z,9.40
2017-11-03T02:19:09.758Z,9.40
2017-11-03T02:21:39.931Z,9.30
2017-11-03T02:24:16.583Z,9.30
2017-11-03T02:26:48.865Z,9.40
2017-11-03T02:29:18.186Z,9.30
2017-11-03T02:31:47.175Z,9.30
2017-11-03T02:34:17.392Z,9.30
2017-11-03T02:36:45.729Z,9.40
2017-11-03T02:39:14.357Z,9.40
2017-11-03T02:41:43.527Z,9.50
2017-11-03T02:44:11.804Z,9.50
2017-11-03T02:46:41.393Z,9.50
2017-11-03T02:49:11.101Z,9.60
2017-11-03T02:51:41.100Z,9.60
2017-11-03T02:54:10.413Z,9.60
2017-11-03T02:56:43.128Z,9.50
2017-11-03T02:59:12.178Z,9.50
2017-11-03T03:01:41.028Z,9.50
2017-11-03T03:04:10.064Z,9.40
2017-11-03T03:06:39.095Z,9.50
2017-11-03T03:09:08.367Z,9.50
2017-11-03T03:11:38.407Z,9.50
2017-11-03T03:14:07.048Z,9.50
2017-11-03T03:16:37.192Z,9.60
2017-11-03T03:19:05.561Z,9.60
2017-11-03T03:21:34.328Z,9.70
2017-11-03T03:24:06.572Z,9.70
2017-11-03T03:26:36.980Z,9.60
2017-11-03T03:29:06.524Z,9.60
2017-11-03T03:31:34.876Z,9.60
2017-11-03T03:34:04.088Z,9.60
2017-11-03T03:36:32.821Z,9.60
2017-11-03T03:39:02.120Z,9.60
2017-11-03T03:41:31.048Z,9.60
2017-11-03T03:43:59.716Z,9.60
2017-11-03T03:46:28.924Z,9.60
2017-11-03T03:48:58.739Z,9.70
2017-11-03T03:51:29.156Z,9.70
2017-11-03T03:53:58.500Z,9.70
2017-11-03T03:56:33.243Z,9.80
2017-11-03T03:59:02.388Z,9.80
2017-11-03T04:01:31.049Z,9.80
2017-11-03T04:03:59.640Z,9.80
2017-11-03T04:06:28.262Z,9.70
2017-11-03T04:08:57.212Z,9.80
2017-11-03T04:11:25.655Z,9.80
2017-11-03T04:13:56.280Z,9.90
2017-11-03T04:16:26.277Z,9.90
2017-11-03T04:18:56.228Z,9.80
2017-11-03T04:21:25.700Z,9.70
2017-11-03T04:23:55.020Z,9.70
2017-11-03T04:26:24.715Z,9.70
2017-11-03T04:29:01.645Z,9.50
2017-11-03T04:31:31.133Z,9.40
2017-11-03T04:33:59.759Z,9.40
2017-11-03T04:36:28.364Z,9.30
2017-11-03T04:38:58.467Z,9.20
2017-11-03T04:41:27.996Z,9.10
2017-11-03T04:43:58.137Z,9.10
2017-11-03T04:46:27.615Z,9.10
2017-11-03T04:48:56.684Z,9.00
2017-11-03T04:51:25.313Z,9.00
2017-11-03T04:53:57.664Z,8.90
2017-11-03T04:56:27.859Z,8.80
2017-11-03T04:58:57.479Z,8.80
2017-11-03T05:01:28.028Z,8.70
2017-11-03T05:03:57.808Z,8.70
2017-11-03T05:06:26.561Z,8.70
2017-11-03T05:08:56.300Z,8.60
2017-11-03T05:11:26.964Z,8.60
2017-11-03T05:13:56.391Z,8.60
2017-11-03T05:16:25.924Z,8.60
2017-11-03T05:18:54.593Z,8.60
2017-11-03T05:21:23.447Z,8.50
2017-11-03T05:23:52.608Z,8.50
2017-11-03T05:26:22.873Z,8.40
2017-11-03T05:28:52.139Z,8.30
2017-11-03T05:31:20.799Z,8.20
2017-11-03T05:33:49.092Z,8.20
2017-11-03T05:36:19.408Z,8.10
2017-11-03T05:38:49.049Z,8.10
2017-11-03T05:41:17.964Z,8.10
2017-11-03T05:43:47.360Z,8.10
2017-11-03T05:46:16.392Z,8.10
2017-11-03T05:48:46.004Z,8.00
2017-11-03T05:51:18.734Z,7.90
2017-11-03T05:53:48.412Z,7.80
2017-11-03T05:56:17.062Z,7.80
2017-11-03T05:58:46.377Z,7.70
2017-11-03T06:01:14.680Z,7.60
2017-11-03T06:03:43.632Z,7.60
2017-11-03T06:06:13.428Z,7.70
2017-11-03T06:08:48.432Z,7.70
2017-11-03T06:11:17.413Z,7.70
2017-11-03T06:13:46.774Z,7.70
2017-11-03T06:16:17.558Z,7.60
2017-11-03T06:18:46.522Z,7.50
2017-11-03T06:21:15.469Z,7.50
2017-11-03T06:23:44.513Z,7.50
2017-11-03T06:26:13.477Z,7.30
2017-11-03T06:28:43.767Z,7.30
2017-11-03T06:31:13.130Z,7.40
2017-11-03T06:33:42.184Z,7.50
2017-11-03T06:36:10.748Z,7.60
2017-11-03T06:38:40.552Z,7.70
2017-11-03T06:41:10.080Z,7.70
2017-11-03T06:43:38.525Z,7.80
2017-11-03T06:46:07.472Z,7.80
2017-11-03T06:48:38.419Z,7.80
2017-11-03T06:51:07.866Z,7.90
2017-11-03T06:53:37.232Z,7.90
2017-11-03T06:56:06.776Z,8.00
2017-11-03T06:58:35.427Z,8.10
2017-11-03T07:01:03.780Z,8.20
2017-11-03T07:03:33.664Z,8.30
2017-11-03T07:06:02.629Z,8.30
2017-11-03T07:08:31.047Z,8.40
2017-11-03T07:10:59.357Z,8.40
2017-11-03T07:13:28.597Z,8.30
2017-11-03T07:15:57.250Z,8.20
2017-11-03T07:18:25.604Z,8.10
2017-11-03T07:20:55.148Z,8.10
2017-11-03T07:23:25.841Z,8.10
2017-11-03T07:25:55.143Z,8.00
2017-11-03T07:28:24.476Z,8.10
2017-11-03T07:30:54.313Z,8.10
2017-11-03T07:33:23.373Z,8.20
2017-11-03T07:35:52.635Z,8.30
2017-11-03T07:38:21.761Z,8.50
2017-11-03T07:40:51.991Z,8.60
2017-11-03T07:43:20.921Z,8.80
2017-11-03T07:45:50.247Z,8.90
2017-11-03T07:48:19.823Z,9.10
2017-11-03T07:50:49.044Z,9.20
2017-11-03T07:53:18.733Z,9.30
2017-11-03T07:55:47.418Z,9.40
2017-11-03T07:58:17.212Z,9.40
2017-11-03T08:00:46.592Z,9.60
2017-11-03T08:03:16.948Z,9.70
2017-11-03T08:05:47.245Z,9.90
2017-11-03T08:08:16.935Z,9.90
2017-11-03T08:10:51.588Z,10.00
2017-11-03T08:13:20.911Z,10.00
2017-11-03T08:15:50.592Z,10.00
2017-11-03T08:18:19.504Z,10.10
2017-11-03T08:20:47.838Z,10.20
2017-11-03T08:23:17.721Z,10.30
2017-11-03T08:25:51.725Z,10.20
2017-11-03T08:28:20.376Z,10.10
2017-11-03T08:30:49.732Z,10.10
2017-11-03T08:33:18.060Z,10.10
2017-11-03T08:35:47.464Z,10.10
2017-11-03T08:38:16.486Z,10.10
2017-11-03T08:40:45.054Z,10.10
2017-11-03T08:43:14.096Z,10.20
2017-11-03T08:45:43.171Z,10.10
2017-11-03T08:48:12.444Z,10.20
2017-11-03T08:50:41.109Z,10.20
2017-11-03T08:53:10.201Z,10.30
2017-11-03T08:55:40.695Z,10.30
2017-11-03T08:58:10.267Z,10.40
2017-11-03T09:00:38.959Z,10.50
2017-11-03T09:03:07.712Z,10.60
2017-11-03T09:05:37.278Z,10.50
2017-11-03T09:08:06.052Z,10.50
2017-11-03T09:10:35.520Z,10.60
2017-11-03T09:13:05.303Z,10.70
2017-11-03T09:15:33.772Z,10.70
2017-11-03T09:18:03.831Z,10.80
2017-11-03T09:20:33.103Z,10.90
2017-11-03T09:23:01.776Z,10.90
2017-11-03T09:25:31.271Z,11.00
2017-11-03T09:28:02.049Z,11.00
2017-11-03T09:30:31.171Z,11.00
2017-11-03T09:33:00.676Z,11.00
2017-11-03T09:35:29.019Z,11.10
2017-11-03T09:38:00.168Z,11.20
2017-11-03T09:40:30.964Z,11.30
2017-11-03T09:43:00.072Z,11.20
2017-11-03T09:45:29.944Z,11.20
2017-11-03T09:48:00.708Z,11.20
2017-11-03T09:50:30.296Z,11.30
2017-11-03T09:53:00.212Z,11.40
2017-11-03T09:55:29.735Z,11.40
2017-11-03T09:57:59.831Z,11.40
2017-11-03T10:00:29.208Z,11.40
2017-11-03T10:02:58.659Z,11.20
2017-11-03T10:05:27.601Z,11.40
2017-11-03T10:07:58.269Z,11.60
2017-11-03T10:10:28.132Z,11.60
2017-11-03T10:12:58.078Z,11.80
2017-11-03T10:15:27.970Z,11.70
2017-11-03T10:17:58.276Z,11.60
2017-11-03T10:20:30.725Z,11.50
2017-11-03T10:23:00.812Z,11.40
2017-11-03T10:25:29.564Z,11.30
2017-11-03T10:28:03.824Z,11.30
2017-11-03T10:30:32.902Z,11.20
2017-11-03T10:33:06.640Z,11.30
2017-11-03T10:35:36.300Z,11.40
2017-11-03T10:38:05.813Z,11.50
2017-11-03T10:40:35.224Z,11.50
2017-11-03T10:43:04.662Z,11.60
2017-11-03T10:45:33.192Z,11.70
2017-11-03T10:48:02.112Z,11.80
2017-11-03T10:50:32.913Z,11.90
2017-11-03T10:53:01.589Z,11.80
2017-11-03T10:55:30.724Z,11.80
2017-11-03T10:58:00.046Z,11.90
2017-11-03T11:00:29.380Z,12.00
2017-11-03T11:02:59.645Z,12.00
2017-11-03T11:05:27.995Z,12.20
2017-11-03T11:07:58.688Z,12.40
2017-11-03T11:10:27.420Z,12.50
2017-11-03T11:12:57.544Z,12.50
2017-11-03T11:15:26.429Z,12.40
2017-11-03T11:17:56.817Z,12.30
2017-11-03T11:20:25.603Z,12.30
2017-11-03T11:22:54.976Z,12.20
2017-11-03T11:25:30.241Z,12.10
2017-11-03T11:28:01.257Z,12.30
2017-11-03T11:30:29.783Z,12.40
2017-11-03T11:32:58.915Z,12.40
2017-11-03T11:35:28.391Z,12.30
2017-11-03T11:37:57.077Z,12.30
2017-11-03T11:40:27.760Z,12.40
2017-11-03T11:42:56.400Z,12.40
2017-11-03T11:45:26.261Z,12.50
2017-11-03T11:47:56.329Z,12.60
2017-11-03T11:50:25.557Z,12.80
2017-11-03T11:52:54.264Z,12.70
2017-11-03T11:55:23.597Z,12.60
2017-11-03T11:57:53.756Z,12.70
2017-11-03T12:00:22.894Z,12.80
2017-11-03T12:02:52.152Z,12.80
2017-11-03T12:05:20.945Z,12.80
2017-11-03T12:07:49.938Z,12.70
2017-11-03T12:10:19.198Z,12.70
2017-11-03T12:12:47.916Z,12.70
2017-11-03T12:15:16.472Z,12.60
2017-11-03T12:17:47.947Z,12.60
2017-11-03T12:20:17.563Z,12.60
2017-11-03T12:22:46.221Z,12.60
2017-11-03T12:25:15.545Z,12.60
2017-11-03T12:27:44.517Z,12.60
2017-11-03T12:30:14.074Z,12.60
2017-11-03T12:32:44.710Z,12.70
2017-11-03T12:35:14.904Z,12.60
2017-11-03T12:37:43.838Z,12.60
2017-11-03T12:40:13.244Z,12.60
2017-11-03T12:42:42.658Z,12.60
2017-11-03T12:45:12.505Z,12.50
2017-11-03T12:47:42.670Z,12.50
2017-11-03T12:50:11.836Z,12.60
2017-11-03T12:52:42.635Z,12.60
2017-11-03T12:55:12.842Z,12.60
2017-11-03T12:57:42.143Z,12.60
2017-11-03T13:00:11.352Z,12.70
2017-11-03T13:02:41.074Z,12.60
2017-11-03T13:05:10.428Z,12.70
2017-11-03T13:07:39.971Z,12.80
2017-11-03T13:10:11.164Z,12.80
2017-11-03T13:12:39.849Z,12.80
2017-11-03T13:15:10.813Z,12.90
2017-11-03T13:17:40.566Z,13.00
2017-11-03T13:20:09.574Z,12.90
2017-11-03T13:22:39.269Z,12.80
2017-11-03T13:25:08.317Z,12.70
2017-11-03T13:27:39.067Z,12.60
2017-11-03T13:30:07.525Z,12.70
2017-11-03T13:32:37.146Z,12.70
2017-11-03T13:35:06.431Z,12.80
2017-11-03T13:37:34.932Z,12.80
2017-11-03T13:40:03.554Z,12.80
2017-11-03T13:42:32.632Z,12.80
2017-11-03T13:45:03.062Z,12.70
2017-11-03T13:47:32.124Z,12.60
2017-11-03T13:50:04.909Z,12.60
2017-11-03T13:52:35.920Z,12.60
2017-11-03T13:55:05.037Z,12.70
2017-11-03T13:57:35.956Z,12.60
2017-11-03T14:00:06.195Z,12.70
2017-11-03T14:02:35.927Z,12.60
2017-11-03T14:05:05.239Z,12.70
2017-11-03T14:07:33.972Z,12.70
2017-11-03T14:10:02.812Z,12.70
2017-11-03T14:12:31.954Z,12.60
2017-11-03T14:15:01.455Z,12.40
2017-11-03T14:17:30.492Z,12.50
2017-11-03T14:19:59.576Z,12.40
2017-11-03T14:22:27.949Z,12.40
2017-11-03T14:24:56.256Z,12.30
2017-11-03T14:27:25.286Z,12.30
2017-11-03T14:29:53.921Z,12.40
2017-11-03T14:32:23.269Z,12.40
2017-11-03T14:34:52.222Z,12.30
2017-11-03T14:37:23.663Z,12.30
2017-11-03T14:39:53.826Z,12.20
2017-11-03T14:42:22.889Z,12.10
2017-11-03T14:44:51.520Z,12.20
2017-11-03T14:47:21.220Z,12.00
2017-11-03T14:49:50.535Z,12.20
2017-11-03T14:52:27.561Z,12.20
2017-11-03T14:54:56.350Z,12.10
2017-11-03T14:57:25.388Z,12.10
2017-11-03T14:59:54.545Z,12.00
2017-11-03T15:02:24.784Z,12.00
2017-11-03T15:04:54.068Z,12.00
2017-11-03T15:07:27.508Z,11.70
2017-11-03T15:09:56.321Z,11.80
2017-11-03T15:12:25.740Z,11.90
2017-11-03T15:14:54.312Z,11.90
2017-11-03T15:17:24.483Z,11.90
2017-11-03T15:19:53.727Z,11.90
2017-11-03T15:22:24.521Z,11.90
2017-11-03T15:24:53.429Z,11.80
2017-11-03T15:27:22.648Z,11.80
2017-11-03T15:29:54.254Z,11.80
2017-11-03T15:32:24.809Z,11.80
2017-11-03T15:34:54.315Z,11.80
2017-11-03T15:37:24.259Z,11.80
2017-11-03T15:39:53.672Z,11.70
2017-11-03T15:42:23.446Z,11.60
2017-11-03T15:44:52.312Z,11.60
2017-11-03T15:47:21.771Z,11.60
2017-11-03T15:49:50.508Z,11.60
2017-11-03T15:52:23.596Z,11.60
2017-11-03T15:54:52.968Z,11.60
2017-11-03T15:57:22.816Z,11.60
2017-11-03T15:59:52.965Z,11.50
2017-11-03T16:02:22.548Z,11.50
2017-11-03T16:04:53.876Z,11.40
2017-11-03T16:07:23.764Z,11.50
2017-11-03T16:09:55.961Z,11.40
2017-11-03T16:12:25.171Z,11.40
2017-11-03T16:14:54.796Z,11.40
2017-11-03T16:17:25.639Z,11.30
2017-11-03T16:19:54.620Z,11.30
2017-11-03T16:22:23.324Z,11.30
2017-11-03T16:24:52.164Z,11.30
2017-11-03T16:27:21.049Z,11.40
2017-11-03T16:29:51.744Z,11.40
2017-11-03T16:32:20.736Z,11.30
2017-11-03T16:34:51.054Z,11.30
2017-11-03T16:37:19.955Z,11.30
2017-11-03T16:39:49.139Z,11.30
2017-11-03T16:42:17.800Z,11.30
2017-11-03T16:44:46.828Z,11.30
2017-11-03T16:47:16.362Z,11.30
2017-11-03T16:49:45.805Z,11.30
2017-11-03T16:52:15.887Z,11.30
2017-11-03T16:54:47.813Z,11.40
2017-11-03T16:57:17.555Z,11.30
2017-11-03T16:59:46.590Z,11.30
2017-11-03T17:02:17.504Z,11.20
2017-11-03T17:04:47.188Z,11.20
2017-11-03T17:07:15.670Z,11.20
2017-11-03T17:09:44.389Z,11.20
2017-11-03T17:12:14.317Z,11.20
2017-11-03T17:14:44.845Z,11.20
2017-11-03T17:17:14.297Z,11.30
2017-11-03T17:19:44.182Z,11.30
2017-11-03T17:22:12.724Z,11.20
2017-11-03T17:24:44.126Z,11.20
2017-11-03T17:27:13.653Z,11.30
2017-11-03T17:29:43.812Z,11.20
2017-11-03T17:32:12.979Z,11.20
2017-11-03T17:34:42.705Z,11.20
2017-11-03T17:37:12.704Z,11.20
2017-11-03T17:39:41.588Z,11.20
2017-11-03T17:42:11.372Z,11.20
2017-11-03T17:44:40.165Z,10.90
2017-11-03T17:47:08.760Z,11.30
2017-11-03T17:49:38.124Z,11.30
2017-11-03T17:52:07.944Z,11.20
2017-11-03T17:54:41.333Z,11.20
2017-11-03T17:57:10.952Z,11.10
2017-11-03T17:59:40.605Z,11.10
2017-11-03T18:02:10.374Z,11.10
2017-11-03T18:04:41.633Z,11.10
2017-11-03T18:07:11.168Z,11.20
2017-11-03T18:09:39.712Z,11.10
2017-11-03T18:12:08.800Z,11.20
2017-11-03T18:14:38.257Z,11.20
2017-11-03T18:17:06.645Z,11.10
2017-11-03T18:19:36.435Z,11.20
2017-11-03T18:22:10.435Z,11.20
2017-11-03T18:24:42.757Z,11.20
2017-11-03T18:27:11.288Z,11.20
2017-11-03T18:29:40.362Z,11.20
2017-11-03T18:32:09.200Z,11.20
2017-11-03T18:34:40.728Z,11.20
2017-11-03T18:37:09.486Z,11.30
2017-11-03T18:39:43.371Z,11.20
2017-11-03T18:42:14.004Z,11.30
2017-11-03T18:44:42.653Z,11.30
2017-11-03T18:47:11.450Z,11.20
2017-11-03T18:49:40.480Z,11.20
2017-11-03T18:52:10.072Z,11.20
2017-11-03T18:54:40.141Z,11.30
2017-11-03T18:57:09.793Z,11.30
2017-11-03T18:59:40.441Z,11.20
2017-11-03T19:02:19.713Z,11.30
2017-11-03T19:04:49.400Z,11.30
2017-11-03T19:07:18.850Z,11.40
2017-11-03T19:09:49.133Z,11.30
2017-11-03T19:12:18.989Z,11.30
2017-11-03T19:14:49.318Z,11.30
2017-11-03T19:17:18.388Z,11.30
2017-11-03T19:19:48.770Z,11.30
2017-11-03T19:22:18.207Z,11.30
2017-11-03T19:24:46.619Z,11.30
2017-11-03T19:27:15.417Z,11.30
2017-11-03T19:29:47.897Z,11.30
2017-11-03T19:32:16.886Z,11.30
2017-11-03T19:34:45.633Z,11.20
2017-11-03T19:37:16.748Z,11.30
2017-11-03T19:39:45.549Z,11.30
2017-11-03T19:42:15.052Z,11.30
2017-11-03T19:44:43.707Z,11.30
2017-11-03T19:47:12.364Z,11.30
2017-11-03T19:49:41.481Z,11.30
2017-11-03T19:52:13.965Z,11.30
2017-11-03T19:54:43.244Z,11.20
2017-11-03T19:57:12.972Z,11.20
2017-11-03T19:59:43.460Z,11.20
2017-11-03T20:02:12.420Z,11.20
2017-11-03T20:04:42.940Z,11.20
2017-11-03T20:07:13.343Z,11.20
2017-11-03T20:09:42.391Z,11.20
2017-11-03T20:12:11.623Z,11.20
2017-11-03T20:14:41.519Z,11.20
2017-11-03T20:17:11.160Z,11.20
2017-11-03T20:19:42.849Z,11.20
2017-11-03T20:22:12.581Z,11.20
2017-11-03T20:24:41.285Z,11.10
2017-11-03T20:27:10.683Z,11.10
2017-11-03T20:29:40.146Z,11.10
2017-11-03T20:32:09.181Z,11.10
2017-11-03T20:34:38.698Z,11.10
2017-11-03T20:37:07.260Z,11.10
2017-11-03T20:39:36.441Z,11.10
2017-11-03T20:42:04.819Z,11.10
2017-11-03T20:44:34.336Z,11.10
2017-11-03T20:47:06.561Z,11.10
2017-11-03T20:49:36.098Z,11.10
2017-11-03T20:52:04.773Z,11.10
2017-11-03T20:54:33.737Z,11.00
2017-11-03T20:57:07.600Z,11.00
2017-11-03T20:59:37.397Z,11.00
2017-11-03T21:02:06.880Z,11.00
2017-11-03T21:04:36.184Z,11.00
2017-11-03T21:07:04.797Z,11.00
2017-11-03T21:09:34.259Z,11.00
2017-11-03T21:12:03.559Z,11.10
2017-11-03T21:14:32.477Z,11.00
2017-11-03T21:17:01.996Z,11.00
2017-11-03T21:19:31.693Z,11.00
2017-11-03T21:22:00.980Z,11.00
2017-11-03T21:24:30.025Z,11.00
2017-11-03T21:27:00.173Z,11.10
2017-11-03T21:29:30.872Z,11.10
2017-11-03T21:32:01.177Z,11.10
2017-11-03T21:34:29.512Z,11.00
2017-11-03T21:36:58.783Z,11.00
2017-11-03T21:39:28.276Z,11.00
2017-11-03T21:41:57.926Z,11.00
2017-11-03T21:44:27.230Z,11.00
2017-11-03T21:46:55.814Z,11.00
2017-11-03T21:49:25.351Z,11.00
2017-11-03T21:51:55.551Z,11.00
2017-11-03T21:54:24.035Z,10.90
2017-11-03T21:56:53.124Z,10.90
2017-11-03T21:59:22.008Z,10.90
2017-11-03T22:01:51.679Z,10.90
2017-11-03T22:04:20.385Z,10.90
2017-11-03T22:06:50.784Z,11.00
2017-11-03T22:09:20.932Z,10.90
2017-11-03T22:11:49.334Z,10.90
2017-11-03T22:14:17.966Z,10.90
2017-11-03T22:16:47.193Z,11.00
2017-11-03T22:19:17.322Z,11.00
2017-11-03T22:21:46.106Z,10.90
2017-11-03T22:24:16.247Z,10.90
2017-11-03T22:26:45.504Z,10.90
2017-11-03T22:29:14.852Z,10.90
2017-11-03T22:31:49.237Z,11.00
2017-11-03T22:34:24.352Z,11.00
2017-11-03T22:36:53.468Z,11.00
2017-11-03T22:39:22.992Z,11.00
2017-11-03T22:41:52.587Z,11.00
2017-11-03T22:44:24.313Z,11.00
2017-11-03T22:46:55.056Z,11.00
2017-11-03T22:49:23.657Z,10.90
2017-11-03T22:51:52.311Z,10.90
2017-11-03T22:54:21.991Z,11.00
2017-11-03T22:56:51.020Z,10.90
2017-11-03T22:59:19.656Z,11.00
2017-11-03T23:01:48.588Z,11.00
2017-11-03T23:04:17.310Z,11.00
2017-11-03T23:06:46.499Z,10.90
2017-11-03T23:09:16.572Z,10.90
2017-11-03T23:11:45.777Z,10.90
2017-11-03T23:14:14.124Z,10.90
2017-11-03T23:16:43.856Z,10.90
2017-11-03T23:19:12.805Z,11.00
2017-11-03T23:21:42.517Z,11.00
2017-11-03T23:24:12.040Z,11.00
2017-11-03T23:26:41.720Z,11.00
2017-11-03T23:29:12.182Z,11.00
2017-11-03T23:31:41.148Z,10.90
2017-11-03T23:34:11.208Z,10.90
2017-11-03T23:36:39.856Z,10.90
2017-11-03T23:39:09.376Z,10.90
2017-11-03T23:41:38.384Z,10.90
2017-11-03T23:44:07.540Z,10.90
2017-11-03T23:46:36.560Z,10.90
2017-11-03T23:49:05.768Z,11.00
2017-11-03T23:51:34.623Z,11.00
2017-11-03T23:54:07.648Z,11.00
2017-11-03T23:56:36.632Z,11.00
2017-11-03T23:59:06.744Z,10.90
